Time;durP1;ratioP1;P1;durP2;ratioP2;P2;SDS_P1;SDS_P2;PMS_P1;PMS_P2;Temp;Humidity;BMP_temperature;BMP_pressure;BME280_temperature;BME280_humidity;BME280_pressure;Samples;Min_cycle;Max_cycle;Signal;HPM_P1;HPM_P2
2024/02/08 00:00:22;;;;;;;;;;;17.60;42.10;;;;;;1570958;74;799;-71
2024/02/08 00:02:24;;;;;;;;;;;17.50;42.10;;;;;;1574170;74;1144;-71
2024/02/08 00:04:26;;;;;;;;;;;17.60;42.10;;;;;;1564955;74;673;-71
2024/02/08 00:06:31;;;;;;;;;;;17.60;42.20;;;;;;1577153;74;709;-71
2024/02/08 00:08:35;;;;;;;;;;;17.60;42.10;;;;;;1566745;74;1518;-71
2024/02/08 00:10:35;;;;;;;;;;;17.60;42.10;;;;;;1565619;74;1930;-69
2024/02/08 00:12:40;;;;;;;;;;;17.50;42.20;;;;;;1573993;74;1123;-70
2024/02/08 00:14:42;;;;;;;;;;;17.60;42.10;;;;;;1575177;74;733;-69
2024/02/08 00:16:44;;;;;;;;;;;17.50;42.10;;;;;;1566650;74;608;-70
2024/02/08 00:18:46;;;;;;;;;;;17.50;42.10;;;;;;1576743;74;662;-71
2024/02/08 00:20:47;;;;;;;;;;;17.50;42.10;;;;;;1567291;74;532;-71
2024/02/08 00:22:52;;;;;;;;;;;17.50;42.10;;;;;;1564864;74;1149;-71
2024/02/08 00:24:56;;;;;;;;;;;17.60;42.10;;;;;;1568885;74;1081;-71
2024/02/08 00:26:58;;;;;;;;;;;17.50;42.10;;;;;;1571589;74;681;-71
2024/02/08 00:29:00;;;;;;;;;;;17.50;42.20;;;;;;1573614;74;638;-70
2024/02/08 00:31:04;;;;;;;;;;;17.60;42.10;;;;;;1569861;74;1929;-69
2024/02/08 00:33:08;;;;;;;;;;;17.50;42.10;;;;;;1569035;74;1088;-71
2024/02/08 00:35:10;;;;;;;;;;;17.50;42.20;;;;;;1566573;74;933;-70
2024/02/08 00:37:11;;;;;;;;;;;17.50;42.20;;;;;;1568182;74;722;-71
2024/02/08 00:39:13;;;;;;;;;;;17.50;42.20;;;;;;1580497;74;715;-68
2024/02/08 00:41:15;;;;;;;;;;;17.50;42.20;;;;;;1570359;74;688;-68
2024/02/08 00:43:19;;;;;;;;;;;17.60;42.20;;;;;;1570168;74;1139;-69
2024/02/08 00:45:24;;;;;;;;;;;17.60;42.10;;;;;;1567074;74;1158;-68
2024/02/08 00:47:26;;;;;;;;;;;17.50;42.20;;;;;;1569587;74;754;-68
2024/02/08 00:49:28;;;;;;;;;;;17.50;42.20;;;;;;1573245;74;701;-68
2024/02/08 00:51:31;;;;;;;;;;;17.50;42.20;;;;;;1569075;74;1940;-70
2024/02/08 00:53:33;;;;;;;;;;;17.60;42.10;;;;;;1570206;74;1179;-70
2024/02/08 00:55:35;;;;;;;;;;;17.50;42.10;;;;;;1567072;74;706;-68
2024/02/08 00:57:38;;;;;;;;;;;17.60;42.10;;;;;;1573980;74;690;-68
2024/02/08 00:59:40;;;;;;;;;;;17.50;42.20;;;;;;1569586;74;802;-70
2024/02/08 01:01:42;;;;;;;;;;;17.60;42.10;;;;;;1573853;74;691;-69
2024/02/08 01:03:44;;;;;;;;;;;17.50;42.30;;;;;;1562867;74;1120;-67
2024/02/08 01:05:51;;;;;;;;;;;17.50;42.20;;;;;;1573578;74;630;-69
2024/02/08 01:07:50;;;;;;;;;;;17.50;42.20;;;;;;1571521;74;1607;-69
2024/02/08 01:09:51;;;;;;;;;;;17.50;42.20;;;;;;1569541;74;680;-69
2024/02/08 01:11:53;;;;;;;;;;;17.50;42.20;;;;;;1569744;74;1930;-70
2024/02/08 01:13:55;;;;;;;;;;;17.60;42.20;;;;;;1572952;74;1103;-70
2024/02/08 01:15:57;;;;;;;;;;;17.60;42.20;;;;;;1570438;74;718;-69
2024/02/08 01:18:01;;;;;;;;;;;17.60;42.20;;;;;;1576186;74;685;-70
2024/02/08 01:20:06;;;;;;;;;;;17.50;42.20;;;;;;1571495;74;626;-68
2024/02/08 01:22:06;;;;;;;;;;;17.50;42.10;;;;;;1560042;74;1015;-68
2024/02/08 01:24:09;;;;;;;;;;;17.50;42.10;;;;;;1571098;74;1093;-69
2024/02/08 01:26:10;;;;;;;;;;;17.50;42.30;;;;;;1564887;74;729;-70
2024/02/08 01:28:12;;;;;;;;;;;17.50;42.10;;;;;;1572160;74;635;-68
2024/02/08 01:30:14;;;;;;;;;;;17.50;42.10;;;;;;1564560;74;719;-69
2024/02/08 01:32:20;;;;;;;;;;;17.50;42.20;;;;;;1570011;74;1950;-68
2024/02/08 01:34:28;;;;;;;;;;;17.50;42.20;;;;;;1571324;74;665;-69
2024/02/08 01:36:30;;;;;;;;;;;17.50;42.20;;;;;;1571097;74;1136;-70
2024/02/08 01:38:31;;;;;;;;;;;17.50;42.20;;;;;;1571514;74;1094;-71
2024/02/08 01:40:35;;;;;;;;;;;17.60;42.20;;;;;;1569051;74;694;-70
2024/02/08 01:42:37;;;;;;;;;;;17.50;42.30;;;;;;1565983;74;1179;-70
2024/02/08 01:44:45;;;;;;;;;;;17.50;42.20;;;;;;1566894;74;664;-69
2024/02/08 01:46:48;;;;;;;;;;;17.50;42.20;;;;;;1569688;74;963;-70
2024/02/08 01:48:50;;;;;;;;;;;17.60;42.20;;;;;;1571067;74;689;-68
2024/02/08 01:50:52;;;;;;;;;;;17.50;42.20;;;;;;1568876;74;569;-70
2024/02/08 01:52:54;;;;;;;;;;;17.50;42.30;;;;;;1573372;74;1930;-69
2024/02/08 01:54:56;;;;;;;;;;;17.50;42.20;;;;;;1569823;74;683;-70
2024/02/08 01:57:03;;;;;;;;;;;17.50;42.20;;;;;;1567393;74;673;-69
2024/02/08 01:59:02;;;;;;;;;;;17.50;42.30;;;;;;1573173;74;1079;-70
2024/02/08 02:01:06;;;;;;;;;;;17.50;42.20;;;;;;1569102;74;811;-70
2024/02/08 02:03:10;;;;;;;;;;;17.50;42.20;;;;;;1574655;74;1169;-70
2024/02/08 02:05:17;;;;;;;;;;;17.50;42.20;;;;;;1571071;74;772;-70
2024/02/08 02:07:15;;;;;;;;;;;17.50;42.30;;;;;;1567617;74;1384;-71
2024/02/08 02:09:30;;;;;;;;;;;17.60;42.20;;;;;;1575959;74;759;-71
2024/02/08 02:11:31;;;;;;;;;;;17.50;42.20;;;;;;1566547;74;1914;-70
2024/02/08 02:13:35;;;;;;;;;;;17.50;42.30;;;;;;1573067;74;1150;-69
2024/02/08 02:15:37;;;;;;;;;;;17.60;42.20;;;;;;1570676;74;602;-70
2024/02/08 02:17:41;;;;;;;;;;;17.60;42.20;;;;;;1572731;74;697;-71
2024/02/08 02:19:43;;;;;;;;;;;17.50;42.30;;;;;;1566776;74;1062;-68
2024/02/08 02:21:44;;;;;;;;;;;17.50;42.20;;;;;;1571387;74;641;-70
2024/02/08 02:23:48;;;;;;;;;;;17.50;42.20;;;;;;1570077;74;1148;-70
2024/02/08 02:25:54;;;;;;;;;;;17.50;42.30;;;;;;1566829;74;658;-69
2024/02/08 02:27:54;;;;;;;;;;;17.50;42.30;;;;;;1572527;74;975;-69
2024/02/08 02:29:56;;;;;;;;;;;17.50;42.30;;;;;;1568965;74;671;-70
2024/02/08 02:31:59;;;;;;;;;;;17.60;42.30;;;;;;1569889;74;1929;-69
2024/02/08 02:34:01;;;;;;;;;;;17.50;42.30;;;;;;1568804;74;1124;-71
2024/02/08 02:36:07;;;;;;;;;;;17.50;42.20;;;;;;1575864;74;619;-70
2024/02/08 02:38:12;;;;;;;;;;;17.50;42.20;;;;;;1575189;74;697;-69
2024/02/08 02:40:33;;;;;;;;;;;17.50;42.20;;;;;;1570311;74;1194;-70
2024/02/08 02:42:35;;;;;;;;;;;17.60;42.20;;;;;;1568760;74;1403;-70
2024/02/08 02:44:37;;;;;;;;;;;17.60;42.30;;;;;;1546285;75;691;-70
2024/02/08 02:46:39;;;;;;;;;;;17.50;42.20;;;;;;1548392;75;720;-70
2024/02/08 02:48:41;;;;;;;;;;;17.50;42.20;;;;;;1551082;76;791;-71
2024/02/08 02:50:43;;;;;;;;;;;17.50;42.20;;;;;;1544659;76;652;-70
2024/02/08 02:52:49;;;;;;;;;;;17.50;42.20;;;;;;1543131;76;1897;-70
2024/02/08 02:54:51;;;;;;;;;;;17.50;42.20;;;;;;1546312;76;807;-69
2024/02/08 02:56:53;;;;;;;;;;;17.50;42.30;;;;;;1541495;75;805;-69
2024/02/08 02:58:57;;;;;;;;;;;17.60;42.20;;;;;;1550833;76;1120;-70
2024/02/08 03:01:04;;;;;;;;;;;17.50;42.20;;;;;;1543807;76;790;-71
2024/02/08 03:03:12;;;;;;;;;;;17.50;42.30;;;;;;1548167;75;1531;-68
2024/02/08 03:05:13;;;;;;;;;;;17.50;42.20;;;;;;1547148;75;1658;-70
2024/02/08 03:07:16;;;;;;;;;;;17.60;42.20;;;;;;1549364;75;1451;-70
2024/02/08 03:09:23;;;;;;;;;;;17.50;42.20;;;;;;1547483;76;750;-69
2024/02/08 03:11:21;;;;;;;;;;;17.50;42.20;;;;;;1547098;76;1078;-70
2024/02/08 03:13:23;;;;;;;;;;;17.50;42.30;;;;;;1546231;75;1959;-70
2024/02/08 03:15:25;;;;;;;;;;;17.50;42.30;;;;;;1548716;75;713;-69
2024/02/08 03:17:28;;;;;;;;;;;17.50;42.30;;;;;;1547348;75;656;-71
2024/02/08 03:19:35;;;;;;;;;;;17.50;42.30;;;;;;1547375;75;704;-71
2024/02/08 03:21:40;;;;;;;;;;;17.60;42.30;;;;;;1546653;75;1157;-70
2024/02/08 03:23:43;;;;;;;;;;;17.50;42.30;;;;;;1546259;76;1150;-70
2024/02/08 03:25:44;;;;;;;;;;;17.50;42.30;;;;;;1544304;75;635;-70
2024/02/08 03:27:51;;;;;;;;;;;17.50;42.30;;;;;;1545150;76;693;-70
2024/02/08 03:29:53;;;;;;;;;;;17.50;42.30;;;;;;1548454;75;993;-69
2024/02/08 03:31:53;;;;;;;;;;;17.50;42.30;;;;;;1545501;76;1923;-69
2024/02/08 03:33:55;;;;;;;;;;;17.50;42.30;;;;;;1545198;76;1178;-70
2024/02/08 03:35:57;;;;;;;;;;;17.50;42.30;;;;;;1544853;75;663;-68
2024/02/08 03:38:02;;;;;;;;;;;17.50;42.30;;;;;;1553924;75;736;-70
2024/02/08 03:40:04;;;;;;;;;;;17.60;42.30;;;;;;1544705;75;673;-70
2024/02/08 03:42:06;;;;;;;;;;;17.50;42.30;;;;;;1549263;76;808;-70
2024/02/08 03:44:10;;;;;;;;;;;17.50;42.30;;;;;;1545806;76;1083;-71
2024/02/08 03:46:12;;;;;;;;;;;17.60;42.30;;;;;;1542161;75;809;-69
2024/02/08 03:48:14;;;;;;;;;;;17.50;42.30;;;;;;1548782;75;727;-71
2024/02/08 03:50:16;;;;;;;;;;;17.50;42.30;;;;;;1551721;75;670;-71
2024/02/08 03:52:19;;;;;;;;;;;17.50;42.30;;;;;;1544523;75;1917;-71
2024/02/08 03:54:24;;;;;;;;;;;17.50;42.30;;;;;;1548408;76;673;-71
2024/02/08 03:56:26;;;;;;;;;;;17.60;42.30;;;;;;1544155;76;1003;-68
2024/02/08 03:58:29;;;;;;;;;;;17.60;42.30;;;;;;1551471;76;688;-71
2024/02/08 04:00:33;;;;;;;;;;;17.50;42.30;;;;;;1549237;75;770;-71
2024/02/08 04:02:35;;;;;;;;;;;17.50;42.30;;;;;;1547901;75;1176;-71
2024/02/08 04:04:52;;;;;;;;;;;17.50;42.30;;;;;;1541091;75;802;-70
2024/02/08 04:07:14;;;;;;;;;;;17.50;42.30;;;;;;1548352;75;1424;-69
2024/02/08 04:09:16;;;;;;;;;;;17.60;42.30;;;;;;1539963;75;1292;-68
2024/02/08 04:55:27;;;;;;;;;;;17.50;42.30;;;;;;1539854;75;693;-69
2024/02/08 04:57:29;;;;;;;;;;;17.50;42.30;;;;;;1547680;76;794;-71
2024/02/08 04:59:30;;;;;;;;;;;17.50;42.30;;;;;;1544090;76;727;-71
2024/02/08 05:01:37;;;;;;;;;;;17.60;42.30;;;;;;1549364;75;769;-71
2024/02/08 05:03:37;;;;;;;;;;;17.60;42.30;;;;;;1547956;76;1363;-70
2024/02/08 05:05:43;;;;;;;;;;;17.50;42.30;;;;;;1550513;76;696;-71
2024/02/08 05:07:43;;;;;;;;;;;17.50;42.30;;;;;;1544847;76;1504;-69
2024/02/08 05:09:45;;;;;;;;;;;17.50;42.30;;;;;;1541224;76;949;-70
2024/02/08 05:11:52;;;;;;;;;;;17.50;42.40;;;;;;1557390;75;695;-71
2024/02/08 05:13:50;;;;;;;;;;;17.50;42.30;;;;;;1549889;76;1923;-71
2024/02/08 05:15:52;;;;;;;;;;;17.60;42.30;;;;;;1544850;75;592;-71
2024/02/08 05:17:54;;;;;;;;;;;17.50;42.30;;;;;;1550172;75;705;-70
2024/02/08 05:19:56;;;;;;;;;;;17.60;42.30;;;;;;1554614;75;755;-70
2024/02/08 05:22:02;;;;;;;;;;;17.50;42.30;;;;;;1542968;76;587;-70
2024/02/08 05:24:04;;;;;;;;;;;17.50;42.30;;;;;;1547939;76;1158;-70
2024/02/08 05:26:06;;;;;;;;;;;17.50;42.30;;;;;;1544498;76;770;-70
2024/02/08 05:28:10;;;;;;;;;;;17.50;42.30;;;;;;1548921;75;650;-70
2024/02/08 05:30:14;;;;;;;;;;;17.50;42.30;;;;;;1542817;76;1585;-70
2024/02/08 05:32:15;;;;;;;;;;;17.50;42.30;;;;;;1547036;76;1110;-71
2024/02/08 05:34:17;;;;;;;;;;;17.50;42.30;;;;;;1549750;75;1933;-70
2024/02/08 05:36:19;;;;;;;;;;;17.50;42.30;;;;;;1551806;76;733;-68
2024/02/08 05:38:21;;;;;;;;;;;17.50;42.30;;;;;;1549426;76;711;-69
2024/02/08 05:40:23;;;;;;;;;;;17.50;42.30;;;;;;1544215;76;784;-69
2024/02/08 05:42:25;;;;;;;;;;;17.50;42.30;;;;;;1543771;75;1142;-71
2024/02/08 05:44:29;;;;;;;;;;;17.50;42.40;;;;;;1545986;76;952;-69
2024/02/08 05:46:37;;;;;;;;;;;17.50;42.40;;;;;;1536505;76;710;-70
2024/02/08 05:48:39;;;;;;;;;;;17.60;42.30;;;;;;1554611;75;1569;-71
2024/02/08 05:50:38;;;;;;;;;;;17.50;42.30;;;;;;1545544;76;1067;-69
2024/02/08 05:52:40;;;;;;;;;;;17.50;42.40;;;;;;1541971;76;1932;-70
2024/02/08 05:54:45;;;;;;;;;;;17.50;42.30;;;;;;1550690;76;721;-70
2024/02/08 05:56:45;;;;;;;;;;;17.50;42.40;;;;;;1546613;75;1153;-71
2024/02/08 05:58:51;;;;;;;;;;;17.50;42.30;;;;;;1545509;76;716;-71
2024/02/08 06:01:01;;;;;;;;;;;17.50;42.40;;;;;;1539514;76;1087;-69
2024/02/08 06:03:01;;;;;;;;;;;17.50;42.40;;;;;;1543701;75;1570;-71
2024/02/08 06:05:08;;;;;;;;;;;17.50;42.40;;;;;;1546948;75;1148;-71
2024/02/08 06:07:07;;;;;;;;;;;17.50;42.40;;;;;;1542525;76;1342;-71
2024/02/08 06:09:09;;;;;;;;;;;17.60;42.40;;;;;;1546491;75;752;-70
2024/02/08 06:11:22;;;;;;;;;;;17.50;42.40;;;;;;1540076;76;759;-69
2024/02/08 06:13:15;;;;;;;;;;;17.50;42.40;;;;;;1535635;76;1921;-70
2024/02/08 06:15:25;;;;;;;;;;;17.50;42.40;;;;;;1544295;76;613;-70
2024/02/08 06:17:38;;;;;;;;;;;17.50;42.40;;;;;;1553673;75;1188;-70
2024/02/08 06:19:50;;;;;;;;;;;17.50;42.40;;;;;;1549936;75;1112;-69
2024/02/08 06:21:43;;;;;;;;;;;17.60;42.40;;;;;;1548398;76;1122;-69
2024/02/08 06:23:45;;;;;;;;;;;17.50;42.40;;;;;;1546925;76;1139;-69
2024/02/08 06:26:20;;;;;;;;;;;17.50;42.50;;;;;;1546201;75;711;-69
2024/02/08 06:27:53;;;;;;;;;;;17.50;42.30;;;;;;1539232;76;946;-69
2024/02/08 06:29:54;;;;;;;;;;;17.50;42.40;;;;;;1542362;76;1234;-68
2024/02/08 06:32:23;;;;;;;;;;;17.50;42.40;;;;;;1552968;75;722;-70
2024/02/08 06:34:10;;;;;;;;;;;17.50;42.40;;;;;;1549369;76;1931;-70
2024/02/08 06:36:13;;;;;;;;;;;17.50;42.40;;;;;;1539233;76;702;-70
2024/02/08 06:38:28;;;;;;;;;;;17.50;42.40;;;;;;1536341;76;765;-70
2024/02/08 06:40:22;;;;;;;;;;;17.50;42.40;;;;;;1547973;76;1129;-68
2024/02/08 06:42:47;;;;;;;;;;;17.50;42.30;;;;;;1545701;76;1130;-70
2024/02/08 06:44:53;;;;;;;;;;;17.50;42.40;;;;;;1534396;76;1493;-70
2024/02/08 06:46:56;;;;;;;;;;;17.50;42.40;;;;;;1543929;75;1073;-70
2024/02/08 07:37:59;;;;;;;;;;;17.60;42.50;;;;;;1550775;76;1649;-68
2024/02/08 07:40:18;;;;;;;;;;;17.50;42.50;;;;;;1554109;75;1432;-71
2024/02/08 07:42:52;;;;;;;;;;;17.50;42.50;;;;;;1552684;75;1579;-71
2024/02/08 07:44:09;;;;;;;;;;;17.50;42.40;;;;;;1534282;76;1123;-71
2024/02/08 07:46:16;;;;;;;;;;;17.50;42.40;;;;;;1549651;75;655;-71
2024/02/08 07:48:37;;;;;;;;;;;17.50;42.50;;;;;;1548510;76;1064;-71
2024/02/08 07:50:24;;;;;;;;;;;17.50;42.50;;;;;;1540618;76;827;-71
2024/02/08 07:52:22;;;;;;;;;;;17.50;42.50;;;;;;1545309;76;1194;-68
2024/02/08 07:54:30;;;;;;;;;;;17.60;42.50;;;;;;1550303;75;1939;-71
2024/02/08 07:56:37;;;;;;;;;;;17.60;42.50;;;;;;1552372;75;963;-70
2024/02/08 07:58:36;;;;;;;;;;;17.50;42.40;;;;;;1545999;76;1160;-70
2024/02/08 08:02:43;;;;;;;;;;;17.50;42.50;;;;;;1556029;75;1160;-70
2024/02/08 08:04:55;;;;;;;;;;;17.50;42.50;;;;;;1543275;75;691;-70
2024/02/08 08:07:00;;;;;;;;;;;17.50;42.50;;;;;;1544655;75;1345;-71
2024/02/08 08:08:58;;;;;;;;;;;17.50;42.40;;;;;;1538990;75;1168;-71
2024/02/08 08:11:04;;;;;;;;;;;17.50;42.50;;;;;;1544393;76;723;-70
2024/02/08 08:13:09;;;;;;;;;;;17.50;42.50;;;;;;1536935;75;1158;-71
2024/02/08 08:17:31;;;;;;;;;;;17.50;42.50;;;;;;1547541;75;814;-70
2024/02/08 08:19:38;;;;;;;;;;;17.50;42.50;;;;;;1547481;75;963;-69
2024/02/08 08:21:29;;;;;;;;;;;17.50;42.50;;;;;;1550039;75;1054;-70
2024/02/08 08:23:31;;;;;;;;;;;17.50;42.60;;;;;;1548214;76;1173;-69
2024/02/08 08:26:23;;;;;;;;;;;17.50;42.50;;;;;;1553835;75;759;-69
2024/02/08 08:30:06;;;;;;;;;;;17.50;42.50;;;;;;1545259;75;1623;-70
2024/02/08 08:32:58;;;;;;;;;;;17.60;42.50;;;;;;1545380;76;1164;-70
2024/02/08 08:36:29;;;;;;;;;;;17.60;42.50;;;;;;1543241;75;872;-70
2024/02/08 08:38:33;;;;;;;;;;;17.60;42.50;;;;;;1557092;75;645;-69
2024/02/08 08:40:38;;;;;;;;;;;17.50;42.50;;;;;;1541463;75;720;-71
2024/02/08 08:42:42;;;;;;;;;;;17.50;42.60;;;;;;1547414;76;1114;-70
2024/02/08 08:44:48;;;;;;;;;;;17.50;42.50;;;;;;1550134;75;1608;-71
2024/02/08 08:46:47;;;;;;;;;;;17.50;42.50;;;;;;1550333;75;1052;-71
2024/02/08 08:48:50;;;;;;;;;;;17.50;42.60;;;;;;1546885;75;606;-70
2024/02/08 08:50:55;;;;;;;;;;;17.50;42.50;;;;;;1550518;76;734;-71
2024/02/08 08:53:16;;;;;;;;;;;17.50;42.60;;;;;;1539701;75;1142;-71
2024/02/08 08:55:17;;;;;;;;;;;17.50;42.50;;;;;;1547230;75;1921;-70
2024/02/08 08:57:18;;;;;;;;;;;17.60;42.50;;;;;;1533810;76;1007;-71
2024/02/08 08:59:20;;;;;;;;;;;17.50;42.50;;;;;;1545402;75;743;-71
2024/02/08 09:01:22;;;;;;;;;;;17.50;42.50;;;;;;1547111;76;791;-71
2024/02/08 09:03:26;;;;;;;;;;;17.50;42.60;;;;;;1546035;76;1142;-69
2024/02/08 09:05:31;;;;;;;;;;;17.50;42.60;;;;;;1547060;76;755;-69
2024/02/08 09:07:37;;;;;;;;;;;17.50;42.60;;;;;;1546046;75;1376;-70
2024/02/08 09:10:00;;;;;;;;;;;17.50;42.50;;;;;;1556285;75;1078;-70
2024/02/08 09:11:59;;;;;;;;;;;17.50;42.50;;;;;;1545778;76;1555;-69
2024/02/08 09:14:10;;;;;;;;;;;17.60;42.60;;;;;;1547117;75;1945;-71
2024/02/08 09:19:03;;;;;;;;;;;17.50;42.50;;;;;;1547837;76;866;-70
2024/02/08 09:20:30;;;;;;;;;;;17.50;42.50;;;;;;1548338;75;982;-70
2024/02/08 09:22:32;;;;;;;;;;;17.50;42.60;;;;;;1550373;75;1132;-71
2024/02/08 09:24:38;;;;;;;;;;;17.60;42.60;;;;;;1562754;76;646;-70
2024/02/08 09:26:56;;;;;;;;;;;17.50;42.50;;;;;;1545926;75;1079;-70
2024/02/08 09:29:00;;;;;;;;;;;17.50;42.60;;;;;;1539541;75;1370;-71
2024/02/08 09:30:57;;;;;;;;;;;17.50;42.50;;;;;;1540487;76;950;-71
2024/02/08 09:33:03;;;;;;;;;;;17.50;42.40;;;;;;1551437;75;1140;-69
2024/02/08 09:35:11;;;;;;;;;;;17.60;42.60;;;;;;1555219;75;1927;-70
2024/02/08 09:37:10;;;;;;;;;;;17.50;42.60;;;;;;1555622;75;1135;-69
2024/02/08 09:39:19;;;;;;;;;;;17.50;42.50;;;;;;1556219;76;637;-71
2024/02/08 09:41:24;;;;;;;;;;;17.60;42.60;;;;;;1541274;76;672;-71
2024/02/08 09:43:29;;;;;;;;;;;17.50;42.60;;;;;;1548808;76;1091;-71
2024/02/08 09:47:36;;;;;;;;;;;17.60;42.60;;;;;;1542458;75;865;-69
2024/02/08 09:49:39;;;;;;;;;;;17.50;42.60;;;;;;1546243;76;733;-71
2024/02/08 09:53:54;;;;;;;;;;;17.50;42.60;;;;;;1496957;76;1952;-71
2024/02/08 09:55:57;;;;;;;;;;;17.70;42.60;;;;;;1542169;76;582;-71
2024/02/08 09:58:04;;;;;;;;;;;17.50;42.60;;;;;;1550678;75;744;-69
2024/02/08 10:00:07;;;;;;;;;;;17.60;42.60;;;;;;1555680;75;1106;-69
2024/02/08 10:02:20;;;;;;;;;;;17.50;42.60;;;;;;1537962;74;626;-70
2024/02/08 10:04:16;;;;;;;;;;;17.60;42.60;;;;;;1545505;75;1148;-69
2024/02/08 10:06:38;;;;;;;;;;;17.50;42.60;;;;;;1544990;76;594;-69
2024/02/08 10:08:28;;;;;;;;;;;17.50;42.60;;;;;;1536616;76;1407;-70
2024/02/08 10:10:33;;;;;;;;;;;17.50;42.60;;;;;;1551439;76;683;-70
2024/02/08 10:12:50;;;;;;;;;;;17.60;42.60;;;;;;1548482;75;1206;-69
2024/02/08 10:14:41;;;;;;;;;;;17.50;42.60;;;;;;1540364;76;1918;-69
2024/02/08 10:16:47;;;;;;;;;;;17.60;42.60;;;;;;1553172;75;1008;-70
2024/02/08 10:18:51;;;;;;;;;;;17.50;42.60;;;;;;1540944;75;1647;-71
2024/02/08 10:20:58;;;;;;;;;;;17.50;42.50;;;;;;1550691;75;1085;-69
2024/02/08 10:22:57;;;;;;;;;;;17.50;42.60;;;;;;1543351;76;1524;-71
2024/02/08 10:27:03;;;;;;;;;;;17.60;42.60;;;;;;1543251;76;868;-70
2024/02/08 10:29:14;;;;;;;;;;;17.50;42.60;;;;;;1544883;76;1098;-71
2024/02/08 10:31:18;;;;;;;;;;;17.50;42.60;;;;;;1542650;76;1550;-71
2024/02/08 10:33:24;;;;;;;;;;;17.60;42.60;;;;;;1537585;75;1184;-70
2024/02/08 10:35:20;;;;;;;;;;;17.50;42.60;;;;;;1540000;75;1926;-71
2024/02/08 10:39:59;;;;;;;;;;;17.50;42.50;;;;;;1548152;75;1672;-70
2024/02/08 10:44:00;;;;;;;;;;;17.60;42.60;;;;;;1550669;75;1173;-69
2024/02/08 10:46:03;;;;;;;;;;;17.60;42.60;;;;;;1541281;76;1535;-69
2024/02/08 10:48:06;;;;;;;;;;;17.50;42.50;;;;;;1546742;75;764;-69
2024/02/08 10:50:19;;;;;;;;;;;17.60;42.60;;;;;;1550756;76;760;-69
2024/02/08 10:52:15;;;;;;;;;;;17.60;42.50;;;;;;1544529;76;1476;-69
2024/02/08 10:54:22;;;;;;;;;;;17.60;42.50;;;;;;1553312;76;1934;-71
2024/02/08 10:56:40;;;;;;;;;;;17.60;42.50;;;;;;1542510;76;1077;-71
2024/02/08 10:58:29;;;;;;;;;;;17.50;42.60;;;;;;1548268;75;1159;-71
2024/02/08 11:02:49;;;;;;;;;;;17.60;42.60;;;;;;1539825;75;1228;-71
2024/02/08 11:05:12;;;;;;;;;;;17.50;42.60;;;;;;1547836;75;559;-69
2024/02/08 11:07:06;;;;;;;;;;;17.60;42.60;;;;;;1537946;75;1678;-71
2024/02/08 11:09:33;;;;;;;;;;;17.50;42.60;;;;;;1541911;75;982;-69
2024/02/08 11:11:12;;;;;;;;;;;17.50;42.60;;;;;;1536321;75;1113;-71
2024/02/08 11:13:15;;;;;;;;;;;17.50;42.60;;;;;;1543397;76;1155;-70
2024/02/08 11:15:19;;;;;;;;;;;17.50;42.60;;;;;;1546035;75;1914;-71
2024/02/08 11:17:23;;;;;;;;;;;17.60;42.60;;;;;;1551826;76;857;-72
2024/02/08 11:19:34;;;;;;;;;;;17.60;42.60;;;;;;1543629;76;712;-70
2024/02/08 11:21:42;;;;;;;;;;;17.50;42.60;;;;;;1544810;75;1442;-71
2024/02/08 11:23:32;;;;;;;;;;;17.60;42.60;;;;;;1546559;75;1190;-71
2024/02/08 11:25:36;;;;;;;;;;;17.60;42.60;;;;;;1548328;76;667;-71
2024/02/08 11:27:37;;;;;;;;;;;17.50;42.60;;;;;;1545694;75;655;-71
2024/02/08 11:29:45;;;;;;;;;;;17.50;42.60;;;;;;1543536;75;683;-71
2024/02/08 11:31:49;;;;;;;;;;;17.50;42.60;;;;;;1555445;76;1108;-71
2024/02/08 11:33:55;;;;;;;;;;;17.60;42.60;;;;;;1543689;75;1139;-71
2024/02/08 11:35:56;;;;;;;;;;;17.60;42.60;;;;;;1550919;75;1905;-69
2024/02/08 11:38:10;;;;;;;;;;;17.60;42.60;;;;;;1541472;76;1961;-71
2024/02/08 11:40:12;;;;;;;;;;;17.60;42.60;;;;;;1543104;75;679;-71
2024/02/08 11:42:16;;;;;;;;;;;17.50;42.60;;;;;;1558552;75;720;-70
2024/02/08 11:44:21;;;;;;;;;;;17.60;42.60;;;;;;1546927;76;1115;-70
2024/02/08 11:46:23;;;;;;;;;;;17.50;42.60;;;;;;1545097;75;804;-71
2024/02/08 11:48:28;;;;;;;;;;;17.60;42.60;;;;;;1547797;75;728;-71
2024/02/08 11:50:36;;;;;;;;;;;17.50;42.60;;;;;;1548177;75;682;-70
2024/02/08 11:52:36;;;;;;;;;;;17.50;42.60;;;;;;1544998;75;1391;-71
2024/02/08 11:54:40;;;;;;;;;;;17.50;42.60;;;;;;1549437;76;1908;-70
2024/02/08 11:56:44;;;;;;;;;;;17.60;42.60;;;;;;1543146;76;583;-68
2024/02/08 11:58:46;;;;;;;;;;;17.50;42.60;;;;;;1552699;75;1250;-71
2024/02/08 12:00:50;;;;;;;;;;;17.60;42.60;;;;;;1542427;75;577;-69
2024/02/08 12:02:58;;;;;;;;;;;17.50;42.60;;;;;;1544946;75;1164;-70
2024/02/08 12:05:00;;;;;;;;;;;17.50;42.60;;;;;;1548983;75;702;-68
2024/02/08 12:07:07;;;;;;;;;;;17.60;42.60;;;;;;1542953;76;1474;-70
2024/02/08 12:09:11;;;;;;;;;;;17.50;42.60;;;;;;1548261;75;1500;-69
2024/02/08 12:11:12;;;;;;;;;;;17.50;42.60;;;;;;1544292;76;979;-69
2024/02/08 12:13:14;;;;;;;;;;;17.60;42.60;;;;;;1549878;75;1163;-71
2024/02/08 12:15:17;;;;;;;;;;;17.50;42.60;;;;;;1549419;76;1935;-70
2024/02/08 12:17:22;;;;;;;;;;;17.60;42.60;;;;;;1550828;76;728;-70
2024/02/08 12:19:24;;;;;;;;;;;17.50;42.60;;;;;;1551923;75;720;-71
2024/02/08 12:21:26;;;;;;;;;;;17.60;42.60;;;;;;1541002;74;610;-68
2024/02/08 12:23:31;;;;;;;;;;;17.60;42.60;;;;;;1538283;75;1194;-71
2024/02/08 12:25:33;;;;;;;;;;;17.60;42.70;;;;;;1543685;76;664;-70
2024/02/08 12:27:35;;;;;;;;;;;17.50;42.60;;;;;;1557734;75;633;-70
2024/02/08 12:29:38;;;;;;;;;;;17.60;42.70;;;;;;1549098;75;741;-69
2024/02/08 12:31:41;;;;;;;;;;;17.60;42.70;;;;;;1547939;75;656;-70
2024/02/08 12:33:45;;;;;;;;;;;17.50;42.60;;;;;;1542428;75;1088;-70
2024/02/08 12:35:47;;;;;;;;;;;17.60;42.70;;;;;;1546188;76;1911;-69
2024/02/08 12:37:49;;;;;;;;;;;17.60;42.70;;;;;;1549670;76;682;-69
2024/02/08 12:39:51;;;;;;;;;;;17.50;42.60;;;;;;1553508;75;742;-70
2024/02/08 12:41:54;;;;;;;;;;;17.60;42.60;;;;;;1546542;76;677;-69
2024/02/08 12:43:57;;;;;;;;;;;17.60;42.60;;;;;;1540131;75;1103;-70
2024/02/08 12:45:59;;;;;;;;;;;17.50;42.60;;;;;;1551553;75;767;-71
2024/02/08 12:48:04;;;;;;;;;;;17.60;42.60;;;;;;1546889;76;692;-71
2024/02/08 12:50:08;;;;;;;;;;;17.50;42.60;;;;;;1546436;75;1007;-70
2024/02/08 12:52:09;;;;;;;;;;;17.50;42.70;;;;;;1545129;75;1176;-70
2024/02/08 12:54:13;;;;;;;;;;;17.60;42.70;;;;;;1551126;76;1100;-68
2024/02/08 12:56:15;;;;;;;;;;;17.60;42.70;;;;;;1546448;76;1980;-70
2024/02/08 12:58:17;;;;;;;;;;;17.50;42.60;;;;;;1539482;75;1129;-70
2024/02/08 13:00:21;;;;;;;;;;;17.60;42.70;;;;;;1509435;77;769;-70
2024/02/08 13:02:22;;;;;;;;;;;17.60;42.70;;;;;;1506011;77;1988;-70
2024/02/08 13:04:24;;;;;;;;;;;17.50;42.70;;;;;;1505196;77;930;-70
2024/02/08 13:06:27;;;;;;;;;;;17.60;42.70;;;;;;1511322;77;669;-70
2024/02/08 13:08:38;;;;;;;;;;;17.50;42.70;;;;;;1516231;77;1277;-70
2024/02/08 13:10:33;;;;;;;;;;;17.60;42.70;;;;;;1511894;77;1201;-71
2024/02/08 13:12:37;;;;;;;;;;;17.50;42.70;;;;;;1503900;77;1183;-69
2024/02/08 13:14:38;;;;;;;;;;;17.50;42.70;;;;;;1506706;77;1568;-71
2024/02/08 13:16:40;;;;;;;;;;;17.60;42.70;;;;;;1506923;77;1933;-71
2024/02/08 13:18:48;;;;;;;;;;;17.60;42.60;;;;;;1495853;77;736;-70
2024/02/08 13:20:47;;;;;;;;;;;17.60;42.70;;;;;;1507230;77;1060;-70
2024/02/08 13:22:51;;;;;;;;;;;17.60;42.70;;;;;;1505859;77;1176;-70
2024/02/08 13:24:52;;;;;;;;;;;17.60;42.70;;;;;;1512159;77;1173;-71
2024/02/08 13:26:54;;;;;;;;;;;17.60;42.70;;;;;;1506004;77;685;-71
2024/02/08 13:28:57;;;;;;;;;;;17.60;42.70;;;;;;1505466;77;679;-70
2024/02/08 13:30:59;;;;;;;;;;;17.60;42.70;;;;;;1506814;77;671;-70
2024/02/08 13:33:05;;;;;;;;;;;17.60;42.70;;;;;;1515358;77;1144;-69
2024/02/08 13:35:04;;;;;;;;;;;17.60;42.60;;;;;;1516205;77;1922;-70
2024/02/08 13:37:15;;;;;;;;;;;17.50;42.60;;;;;;1551450;75;722;-69
2024/02/08 13:39:11;;;;;;;;;;;17.50;42.60;;;;;;1548673;75;993;-70
2024/02/08 13:41:13;;;;;;;;;;;17.60;42.70;;;;;;1543181;76;714;-68
2024/02/08 13:43:16;;;;;;;;;;;17.50;42.70;;;;;;1547886;75;1167;-70
2024/02/08 13:45:24;;;;;;;;;;;17.60;42.70;;;;;;1550933;75;790;-70
2024/02/08 13:47:25;;;;;;;;;;;17.60;42.70;;;;;;1549114;75;1431;-70
2024/02/08 13:49:25;;;;;;;;;;;17.50;42.70;;;;;;1541904;76;1702;-70
2024/02/08 13:51:30;;;;;;;;;;;17.50;42.70;;;;;;1546253;76;609;-70
2024/02/08 13:53:31;;;;;;;;;;;17.60;42.70;;;;;;1546467;76;1170;-71
2024/02/08 13:55:33;;;;;;;;;;;17.60;42.70;;;;;;1543218;76;1931;-70
2024/02/08 13:57:39;;;;;;;;;;;17.60;42.70;;;;;;1547924;75;635;-71
2024/02/08 13:59:48;;;;;;;;;;;17.60;42.70;;;;;;1549303;74;747;-70
2024/02/08 14:01:52;;;;;;;;;;;17.60;42.70;;;;;;1541669;75;585;-70
2024/02/08 14:03:58;;;;;;;;;;;17.60;42.70;;;;;;1545427;76;1581;-71
2024/02/08 14:05:59;;;;;;;;;;;17.70;42.80;;;;;;1537874;76;1567;-69
2024/02/08 14:08:01;;;;;;;;;;;17.60;42.70;;;;;;1544549;75;1325;-70
2024/02/08 14:10:08;;;;;;;;;;;17.50;42.70;;;;;;1547771;76;702;-71
2024/02/08 14:12:08;;;;;;;;;;;17.60;42.80;;;;;;1538308;75;967;-70